Time;durP1;ratioP1;P1;durP2;ratioP2;P2;SDS_P1;SDS_P2;PMS_P1;PMS_P2;Temp;Humidity;BMP_temperature;BMP_pressure;BME280_temperature;BME280_humidity;BME280_pressure;Samples;Min_cycle;Max_cycle;Signal;HPM_P1;HPM_P2
2022/08/01 00:01:15;;;;;;;12.73;10.00;;;;;;;;;;5281490;28;20379;-71
2022/08/01 00:03:46;;;;;;;12.32;10.00;;;;;;;;;;5282018;28;20312;-71
2022/08/01 00:06:17;;;;;;;16.17;11.23;;;;;;;;;;5280878;28;20039;-71
2022/08/01 00:08:48;;;;;;;11.57;10.07;;;;;;;;;;5281697;28;20836;-71
2022/08/01 00:11:20;;;;;;;14.68;11.40;;;;;;;;;;5281436;28;20111;-71
2022/08/01 00:13:51;;;;;;;11.80;10.60;;;;;;;;;;5281412;28;20408;-71
2022/08/01 00:16:22;;;;;;;12.32;11.10;;;;;;;;;;5281491;28;20019;-71
2022/08/01 00:18:54;;;;;;;13.77;11.40;;;;;;;;;;5281988;28;20028;-71
2022/08/01 00:21:26;;;;;;;20.80;11.77;;;;;;;;;;5280322;28;20326;-71
2022/08/01 00:23:57;;;;;;;15.03;12.17;;;;;;;;;;5282109;28;20015;-71
2022/08/01 00:26:28;;;;;;;14.30;11.47;;;;;;;;;;5281127;28;20290;-71
2022/08/01 00:28:59;;;;;;;16.27;12.10;;;;;;;;;;5280834;28;20273;-71
2022/08/01 00:31:30;;;;;;;15.02;12.10;;;;;;;;;;5281323;28;20259;-71
2022/08/01 00:34:02;;;;;;;16.55;13.30;;;;;;;;;;5281255;28;20069;-71
2022/08/01 00:36:33;;;;;;;19.05;12.25;;;;;;;;;;5280698;28;20048;-71
2022/08/01 00:39:04;;;;;;;18.83;13.03;;;;;;;;;;5281009;28;20016;-71
2022/08/01 00:41:35;;;;;;;15.15;11.55;;;;;;;;;;5280503;28;20301;-71
2022/08/01 00:44:07;;;;;;;21.57;12.40;;;;;;;;;;5281121;28;20270;-71
2022/08/01 00:46:38;;;;;;;19.90;12.88;;;;;;;;;;5281441;28;20333;-71
2022/08/01 00:49:09;;;;;;;19.67;12.40;;;;;;;;;;5280694;28;20020;-71
2022/08/01 00:51:40;;;;;;;19.88;13.13;;;;;;;;;;5281473;28;20077;-71
2022/08/01 00:54:11;;;;;;;18.87;12.50;;;;;;;;;;5281355;28;20020;-73
2022/08/01 00:56:43;;;;;;;17.42;12.68;;;;;;;;;;5280544;28;20340;-71
2022/08/01 00:59:16;;;;;;;20.42;12.65;;;;;;;;;;5281335;28;20025;-71
2022/08/01 01:01:48;;;;;;;20.50;13.10;;;;;;;;;;5281408;28;20020;-71
2022/08/01 01:04:19;;;;;;;20.38;13.88;;;;;;;;;;5279960;28;20024;-72
2022/08/01 01:07:06;;;;;;;19.63;12.95;;;;;;;;;;5281148;28;20443;-71
2022/08/01 01:09:44;;;;;;;26.15;14.80;;;;;;;;;;5280464;28;20024;-71
2022/08/01 01:12:24;;;;;;;22.98;15.10;;;;;;;;;;5280926;28;20106;-71
2022/08/01 01:15:01;;;;;;;24.67;15.13;;;;;;;;;;5281098;28;20036;-71
2022/08/01 01:17:45;;;;;;;26.60;15.95;;;;;;;;;;5280257;28;20463;-71
2022/08/01 01:20:17;;;;;;;22.38;16.23;;;;;;;;;;5280625;28;20087;-70
2022/08/01 01:23:07;;;;;;;22.00;14.60;;;;;;;;;;5281051;28;20294;-71
2022/08/01 01:25:41;;;;;;;20.23;15.80;;;;;;;;;;5279878;28;20490;-71
2022/08/01 01:28:20;;;;;;;23.23;15.82;;;;;;;;;;5280699;28;20040;-71
2022/08/01 01:30:53;;;;;;;20.45;15.10;;;;;;;;;;5280583;28;20412;-71
2022/08/01 01:33:28;;;;;;;20.60;15.20;;;;;;;;;;5280789;28;20025;-71
2022/08/01 01:36:00;;;;;;;23.98;15.75;;;;;;;;;;5281101;28;20428;-72
2022/08/01 01:38:33;;;;;;;19.85;14.80;;;;;;;;;;5279948;28;20024;-72
2022/08/01 01:41:05;;;;;;;17.98;13.52;;;;;;;;;;5280698;28;20107;-72
2022/08/01 01:43:36;;;;;;;18.48;13.35;;;;;;;;;;5280851;28;20416;-71
2022/08/01 01:46:09;;;;;;;16.67;13.85;;;;;;;;;;5279862;28;20032;-71
2022/08/01 01:48:43;;;;;;;18.55;12.80;;;;;;;;;;5280687;28;20070;-71
2022/08/01 01:51:15;;;;;;;16.55;11.85;;;;;;;;;;5281279;28;20073;-71
2022/08/01 01:53:47;;;;;;;15.45;11.77;;;;;;;;;;5283391;28;20024;-71
2022/08/01 01:56:18;;;;;;;16.00;11.88;;;;;;;;;;5283871;28;20029;-72
2022/08/01 01:58:54;;;;;;;14.13;11.43;;;;;;;;;;5283667;28;20028;-71
2022/08/01 02:01:27;;;;;;;15.65;11.05;;;;;;;;;;5283774;28;20029;-71
2022/08/01 02:03:59;;;;;;;16.42;12.13;;;;;;;;;;5284639;28;20077;-72
2022/08/01 02:06:31;;;;;;;14.18;11.90;;;;;;;;;;5283492;28;20546;-71
2022/08/01 02:09:03;;;;;;;14.50;11.15;;;;;;;;;;5284304;28;20104;-71
2022/08/01 02:11:35;;;;;;;16.83;11.75;;;;;;;;;;5284136;28;20024;-71
2022/08/01 02:14:08;;;;;;;17.48;12.10;;;;;;;;;;5283220;28;20032;-71
2022/08/01 02:16:40;;;;;;;12.82;10.30;;;;;;;;;;5283945;28;20024;-71
2022/08/01 02:19:11;;;;;;;13.23;11.18;;;;;;;;;;5284294;28;20482;-71
2022/08/01 02:21:45;;;;;;;15.32;11.75;;;;;;;;;;5282929;28;20053;-71
2022/08/01 02:24:19;;;;;;;17.15;11.73;;;;;;;;;;5283855;28;20028;-71
2022/08/01 02:26:52;;;;;;;14.48;11.82;;;;;;;;;;5283497;28;20028;-71
2022/08/01 02:29:28;;;;;;;16.02;12.57;;;;;;;;;;5283403;28;20020;-70
2022/08/01 02:32:00;;;;;;;18.83;12.13;;;;;;;;;;5283833;28;20020;-71
2022/08/01 02:34:32;;;;;;;14.77;11.63;;;;;;;;;;5282666;28;20017;-71
2022/08/01 02:37:04;;;;;;;18.65;12.68;;;;;;;;;;5283565;28;20035;-71
2022/08/01 02:39:36;;;;;;;16.48;12.45;;;;;;;;;;5283500;28;20020;-71
2022/08/01 02:42:08;;;;;;;15.18;12.45;;;;;;;;;;5283166;28;20024;-71
2022/08/01 02:44:41;;;;;;;18.77;12.65;;;;;;;;;;5283480;28;20009;-71
2022/08/01 02:47:12;;;;;;;21.38;12.75;;;;;;;;;;5283253;28;20123;-71
2022/08/01 02:49:45;;;;;;;20.08;12.52;;;;;;;;;;5282811;28;20142;-71
2022/08/01 02:52:17;;;;;;;19.98;12.40;;;;;;;;;;5283423;28;20482;-71
2022/08/01 02:54:49;;;;;;;17.52;11.95;;;;;;;;;;5283302;28;20016;-71
2022/08/01 02:57:21;;;;;;;15.95;13.10;;;;;;;;;;5282062;28;20019;-71
2022/08/01 02:59:53;;;;;;;17.67;13.07;;;;;;;;;;5283321;28;20486;-70
2022/08/01 03:02:25;;;;;;;20.75;14.38;;;;;;;;;;5281778;28;20024;-72
2022/08/01 03:04:57;;;;;;;17.35;13.63;;;;;;;;;;5283475;28;20023;-71
2022/08/01 03:07:29;;;;;;;18.23;13.38;;;;;;;;;;5282722;28;20028;-71
2022/08/01 03:10:01;;;;;;;21.50;13.73;;;;;;;;;;5282045;28;20501;-71
2022/08/01 03:12:33;;;;;;;18.00;13.55;;;;;;;;;;5283127;28;20028;-71
2022/08/01 03:15:05;;;;;;;19.92;13.77;;;;;;;;;;5282771;28;20027;-72
2022/08/01 03:17:37;;;;;;;21.63;14.13;;;;;;;;;;5281919;28;20577;-72
2022/08/01 03:20:10;;;;;;;17.70;12.80;;;;;;;;;;5282662;28;20091;-71
2022/08/01 03:22:42;;;;;;;21.83;14.32;;;;;;;;;;5282644;28;20070;-72
2022/08/01 03:25:15;;;;;;;18.05;13.38;;;;;;;;;;5282139;28;20402;-72
2022/08/01 03:27:50;;;;;;;16.70;13.43;;;;;;;;;;5282545;28;20021;-71
2022/08/01 03:30:22;;;;;;;18.88;13.85;;;;;;;;;;5281548;28;20120;-71
2022/08/01 03:32:53;;;;;;;20.52;14.60;;;;;;;;;;5282825;28;20024;-71
2022/08/01 03:35:29;;;;;;;20.83;14.63;;;;;;;;;;5282370;28;20028;-71
2022/08/01 03:38:00;;;;;;;18.35;14.93;;;;;;;;;;5282034;28;20021;-71
2022/08/01 03:40:43;;;;;;;20.55;15.65;;;;;;;;;;5282338;28;20025;-71
2022/08/01 03:43:20;;;;;;;19.75;15.18;;;;;;;;;;5282121;28;20462;-71
2022/08/01 03:45:52;;;;;;;25.35;15.73;;;;;;;;;;5281421;28;20064;-71
2022/08/01 03:48:27;;;;;;;22.42;15.90;;;;;;;;;;5281827;28;20062;-71
2022/08/01 03:50:59;;;;;;;21.17;15.18;;;;;;;;;;5282445;28;20017;-71
2022/08/01 03:53:31;;;;;;;20.50;15.02;;;;;;;;;;5281029;28;20101;-72
2022/08/01 03:56:04;;;;;;;16.88;13.48;;;;;;;;;;5281828;28;20399;-73
2022/08/01 03:58:38;;;;;;;20.17;15.55;;;;;;;;;;5281292;28;20016;-72
2022/08/01 04:01:10;;;;;;;20.63;14.05;;;;;;;;;;5281858;28;20024;-73
2022/08/01 04:03:41;;;;;;;20.77;15.40;;;;;;;;;;5281937;28;20486;-72
2022/08/01 04:06:13;;;;;;;21.83;14.65;;;;;;;;;;5280768;28;20031;-71
2022/08/01 04:08:55;;;;;;;21.17;15.25;;;;;;;;;;5281564;28;20017;-71
2022/08/01 04:11:27;;;;;;;18.88;14.30;;;;;;;;;;5281710;28;20012;-71
2022/08/01 04:13:58;;;;;;;21.52;15.73;;;;;;;;;;5280762;28;20531;-72
2022/08/01 04:16:29;;;;;;;18.83;13.77;;;;;;;;;;5281469;28;20107;-72
2022/08/01 04:19:01;;;;;;;20.02;15.02;;;;;;;;;;5281622;28;20255;-72
2022/08/01 04:21:32;;;;;;;18.67;14.73;;;;;;;;;;5280745;28;20056;-72
2022/08/01 04:24:06;;;;;;;20.00;14.85;;;;;;;;;;5281745;28;20017;-72
2022/08/01 04:26:38;;;;;;;21.42;15.25;;;;;;;;;;5280556;28;20028;-72
2022/08/01 04:29:09;;;;;;;22.80;15.20;;;;;;;;;;5281485;28;20047;-72
2022/08/01 04:31:42;;;;;;;20.30;14.48;;;;;;;;;;5281403;28;20020;-71
2022/08/01 04:34:15;;;;;;;23.48;15.43;;;;;;;;;;5280618;28;20485;-71
2022/08/01 04:36:47;;;;;;;19.48;14.75;;;;;;;;;;5281637;28;20035;-72
2022/08/01 04:39:19;;;;;;;22.63;15.00;;;;;;;;;;5281342;28;20016;-72
2022/08/01 04:41:50;;;;;;;22.55;16.15;;;;;;;;;;5280843;28;20365;-72
2022/08/01 04:44:22;;;;;;;19.08;15.30;;;;;;;;;;5281163;28;20016;-72
2022/08/01 04:46:54;;;;;;;19.17;15.35;;;;;;;;;;5281701;28;20028;-72
2022/08/01 04:49:25;;;;;;;19.38;13.88;;;;;;;;;;5280337;28;20066;-72
2022/08/01 04:52:02;;;;;;;21.77;14.98;;;;;;;;;;5281677;28;20017;-72
2022/08/01 04:54:36;;;;;;;21.83;15.90;;;;;;;;;;5280745;28;20024;-72
2022/08/01 04:57:07;;;;;;;22.35;15.32;;;;;;;;;;5281349;28;20020;-72
2022/08/01 04:59:41;;;;;;;23.80;14.48;;;;;;;;;;5281170;28;20046;-72
2022/08/01 05:02:14;;;;;;;18.73;14.43;;;;;;;;;;5280342;28;20019;-72
2022/08/01 05:04:46;;;;;;;18.67;13.73;;;;;;;;;;5281206;28;20170;-72
2022/08/01 05:07:17;;;;;;;17.00;13.32;;;;;;;;;;5281272;28;20139;-73
2022/08/01 05:09:49;;;;;;;17.67;12.63;;;;;;;;;;5280295;28;20013;-72
2022/08/01 05:12:20;;;;;;;15.98;12.48;;;;;;;;;;5280761;28;20277;-72
2022/08/01 05:14:51;;;;;;;19.83;13.18;;;;;;;;;;5281334;28;20017;-72
2022/08/01 05:17:22;;;;;;;20.25;13.15;;;;;;;;;;5279960;28;20017;-72
2022/08/01 05:19:54;;;;;;;16.87;12.00;;;;;;;;;;5281102;28;20056;-72
2022/08/01 05:22:25;;;;;;;16.03;11.97;;;;;;;;;;5280796;28;20267;-72
2022/08/01 05:24:56;;;;;;;13.13;11.02;;;;;;;;;;5281052;28;20296;-72
2022/08/01 05:27:28;;;;;;;12.20;9.43;;;;;;;;;;5284466;28;20036;-72
2022/08/01 05:29:59;;;;;;;16.70;11.65;;;;;;;;;;5284300;28;20365;-72
2022/08/01 05:32:31;;;;;;;14.68;10.77;;;;;;;;;;5284879;28;20426;-72
2022/08/01 05:35:03;;;;;;;14.20;9.77;;;;;;;;;;5284921;28;20352;-72
2022/08/01 05:37:34;;;;;;;17.95;9.98;;;;;;;;;;5283878;28;20027;-72
2022/08/01 05:40:06;;;;;;;19.50;10.30;;;;;;;;;;5284562;28;20349;-72
2022/08/01 05:42:37;;;;;;;15.13;9.43;;;;;;;;;;5284442;28;20027;-72
2022/08/01 05:45:08;;;;;;;15.80;8.97;;;;;;;;;;5283780;28;20527;-72
2022/08/01 05:47:40;;;;;;;14.05;8.50;;;;;;;;;;5284599;28;20285;-72
2022/08/01 05:50:11;;;;;;;12.40;7.73;;;;;;;;;;5284359;28;20024;-72
2022/08/01 05:52:42;;;;;;;13.35;7.40;;;;;;;;;;5283519;28;20262;-71
2022/08/01 05:55:13;;;;;;;10.18;7.50;;;;;;;;;;5284573;28;20020;-71
2022/08/01 05:57:44;;;;;;;11.33;7.73;;;;;;;;;;5283748;28;20021;-71
2022/08/01 06:00:15;;;;;;;13.90;7.63;;;;;;;;;;5284158;28;20259;-71
2022/08/01 06:02:47;;;;;;;14.63;7.00;;;;;;;;;;5283967;28;20757;-71
2022/08/01 06:05:18;;;;;;;10.75;6.90;;;;;;;;;;5282946;28;20037;-72
2022/08/01 06:07:49;;;;;;;9.05;6.63;;;;;;;;;;5284457;28;20020;-71
2022/08/01 06:10:20;;;;;;;8.50;5.53;;;;;;;;;;5283486;28;20042;-71
2022/08/01 06:12:51;;;;;;;7.63;5.80;;;;;;;;;;5283427;28;20708;-71
2022/08/01 06:15:22;;;;;;;6.93;5.57;;;;;;;;;;5283538;28;20263;-72
2022/08/01 06:17:54;;;;;;;9.00;5.10;;;;;;;;;;5284182;28;20013;-72
2022/08/01 06:20:25;;;;;;;8.02;4.80;;;;;;;;;;5282690;28;20123;-72
2022/08/01 06:22:56;;;;;;;6.20;4.93;;;;;;;;;;5283911;28;20017;-71
2022/08/01 06:25:27;;;;;;;10.43;5.20;;;;;;;;;;5283454;28;20364;-72
2022/08/01 06:27:59;;;;;;;9.48;5.30;;;;;;;;;;5283127;28;20020;-71
2022/08/01 06:30:30;;;;;;;7.68;4.60;;;;;;;;;;5283913;28;20020;-71
2022/08/01 06:33:02;;;;;;;7.93;4.60;;;;;;;;;;5282779;28;20025;-72
2022/08/01 06:35:33;;;;;;;5.38;4.32;;;;;;;;;;5283625;28;20622;-72
2022/08/01 06:38:05;;;;;;;7.55;4.47;;;;;;;;;;5282898;28;20024;-72
2022/08/01 06:40:36;;;;;;;11.82;4.63;;;;;;;;;;5282721;28;20107;-70
2022/08/01 06:43:07;;;;;;;5.80;3.88;;;;;;;;;;5283377;28;20177;-72
2022/08/01 06:45:39;;;;;;;4.83;3.27;;;;;;;;;;5283430;28;20467;-72
2022/08/01 06:48:10;;;;;;;5.22;3.40;;;;;;;;;;5282488;28;20267;-72
2022/08/01 06:50:41;;;;;;;23.55;6.13;;;;;;;;;;5283029;28;20347;-72
2022/08/01 06:53:13;;;;;;;9.63;4.13;;;;;;;;;;5283127;28;20429;-72
2022/08/01 06:55:44;;;;;;;3.67;2.40;;;;;;;;;;5282556;28;20266;-72
2022/08/01 06:58:15;;;;;;;5.07;2.40;;;;;;;;;;5283154;28;20367;-73
2022/08/01 07:00:46;;;;;;;4.97;2.58;;;;;;;;;;5283156;28;20020;-71
2022/08/01 07:03:17;;;;;;;3.50;2.30;;;;;;;;;;5282015;28;20017;-71
2022/08/01 07:05:48;;;;;;;3.90;1.63;;;;;;;;;;5282690;28;20287;-71
2022/08/01 07:08:20;;;;;;;2.70;1.77;;;;;;;;;;5281958;28;20016;-71
2022/08/01 07:10:51;;;;;;;3.55;1.48;;;;;;;;;;5283373;28;20028;-71
2022/08/01 07:13:24;;;;;;;14.43;3.20;;;;;;;;;;5282670;28;20101;-71
2022/08/01 07:15:56;;;;;;;5.40;2.17;;;;;;;;;;5282326;28;20062;-72
2022/08/01 07:18:27;;;;;;;4.72;2.53;;;;;;;;;;5282812;28;20062;-72
2022/08/01 07:20:58;;;;;;;5.70;2.17;;;;;;;;;;5282882;28;20075;-71
2022/08/01 07:23:29;;;;;;;2.70;1.40;;;;;;;;;;5281624;28;20199;-72
2022/08/01 07:26:03;;;;;;;3.80;1.00;;;;;;;;;;5282793;28;20036;-72
2022/08/01 07:28:34;;;;;;;4.20;0.80;;;;;;;;;;5282523;28;20029;-72
2022/08/01 07:31:06;;;;;;;4.57;1.07;;;;;;;;;;5282017;28;20376;-72
2022/08/01 07:33:37;;;;;;;5.57;0.80;;;;;;;;;;5282739;28;20762;-72
2022/08/01 07:36:08;;;;;;;1.30;0.70;;;;;;;;;;5282496;28;20042;-71
2022/08/01 07:38:39;;;;;;;2.00;0.60;;;;;;;;;;5281260;28;20074;-72
2022/08/01 07:41:11;;;;;;;1.93;0.93;;;;;;;;;;5282532;28;20016;-72
2022/08/01 07:43:42;;;;;;;0.97;0.40;;;;;;;;;;5281373;28;20345;-71
2022/08/01 07:46:13;;;;;;;2.50;0.40;;;;;;;;;;5282281;28;20479;-72
2022/08/01 07:48:44;;;;;;;2.95;0.65;;;;;;;;;;5281144;28;20267;-72
2022/08/01 07:51:15;;;;;;;1.53;0.40;;;;;;;;;;5281215;28;20013;-71
2022/08/01 07:53:46;;;;;;;0.75;0.45;;;;;;;;;;5282225;28;20271;-71
2022/08/01 07:56:18;;;;;;;1.07;0.40;;;;;;;;;;5281976;28;20020;-74
2022/08/01 07:58:50;;;;;;;5.28;0.50;;;;;;;;;;5281659;28;20742;-74
2022/08/01 08:01:21;;;;;;;2.80;0.40;;;;;;;;;;5281797;28;20035;-74
2022/08/01 08:03:52;;;;;;;1.98;0.30;;;;;;;;;;5282206;28;20019;-74
2022/08/01 08:06:24;;;;;;;1.25;0.30;;;;;;;;;;5280985;28;20056;-74
2022/08/01 08:08:55;;;;;;;1.65;0.30;;;;;;;;;;5282271;28;20028;-75
2022/08/01 08:11:26;;;;;;;1.02;0.40;;;;;;;;;;5280692;28;20103;-74
2022/08/01 08:13:57;;;;;;;3.65;0.75;;;;;;;;;;5282209;28;20013;-73
2022/08/01 08:16:28;;;;;;;1.63;0.70;;;;;;;;;;5281332;28;20020;-74
2022/08/01 08:19:00;;;;;;;2.30;0.50;;;;;;;;;;5280817;28;20028;-74
2022/08/01 08:21:31;;;;;;;2.13;0.40;;;;;;;;;;5281405;28;20048;-74
2022/08/01 08:24:20;;;;;;;0.73;0.40;;;;;;;;;;5281685;28;20008;-74
2022/08/01 08:26:54;;;;;;;0.93;0.32;;;;;;;;;;5281055;28;20302;-74
2022/08/01 08:29:26;;;;;;;0.82;0.40;;;;;;;;;;5281486;28;20028;-75
2022/08/01 08:31:58;;;;;;;1.00;0.40;;;;;;;;;;5281855;28;20075;-74
2022/08/01 08:34:29;;;;;;;2.55;0.38;;;;;;;;;;5280633;28;20092;-75
2022/08/01 08:37:00;;;;;;;0.55;0.20;;;;;;;;;;5281586;28;20036;-74
2022/08/01 08:39:32;;;;;;;1.80;0.30;;;;;;;;;;5280743;28;20012;-74
2022/08/01 08:42:06;;;;;;;1.25;0.32;;;;;;;;;;5281497;28;20361;-74
2022/08/01 08:44:38;;;;;;;0.73;0.30;;;;;;;;;;5281317;28;20012;-73
2022/08/01 08:47:13;;;;;;;0.95;0.30;;;;;;;;;;5280632;28;20380;-74
2022/08/01 08:49:44;;;;;;;1.08;0.30;;;;;;;;;;5281121;28;20021;-74
2022/08/01 08:52:17;;;;;;;0.60;0.30;;;;;;;;;;5281481;28;20376;-74
2022/08/01 08:54:49;;;;;;;2.10;0.20;;;;;;;;;;5280391;28;20029;-75
2022/08/01 08:57:21;;;;;;;1.65;0.20;;;;;;;;;;5280870;28;20028;-75
2022/08/01 08:59:52;;;;;;;2.67;0.20;;;;;;;;;;5281819;28;20095;-75
2022/08/01 09:02:23;;;;;;;0.52;0.20;;;;;;;;;;5284256;28;20031;-76
2022/08/01 09:04:54;;;;;;;1.63;0.20;;;;;;;;;;5285833;28;20017;-76
2022/08/01 09:07:26;;;;;;;2.13;0.20;;;;;;;;;;5285181;28;20287;-74
2022/08/01 09:09:57;;;;;;;0.40;0.20;;;;;;;;;;5284867;28;20274;-75
2022/08/01 09:12:28;;;;;;;0.45;0.10;;;;;;;;;;5284884;28;20044;-75
2022/08/01 09:14:59;;;;;;;1.67;0.30;;;;;;;;;;5284524;28;20055;-73
2022/08/01 09:17:38;;;;;;;3.15;0.20;;;;;;;;;;5285334;28;20020;-74
2022/08/01 09:20:21;;;;;;;0.63;0.10;;;;;;;;;;5284733;28;20056;-74
2022/08/01 09:22:52;;;;;;;1.13;0.10;;;;;;;;;;5284424;28;20012;-74
2022/08/01 09:25:24;;;;;;;0.83;0.10;;;;;;;;;;5284690;28;20021;-76
2022/08/01 09:28:02;;;;;;;0.20;0.10;;;;;;;;;;5285134;28;20029;-76
2022/08/01 09:30:38;;;;;;;0.75;0.10;;;;;;;;;;5284246;28;20668;-75
2022/08/01 09:33:09;;;;;;;1.58;0.10;;;;;;;;;;5284817;28;20376;-71
2022/08/01 09:35:44;;;;;;;0.20;0.10;;;;;;;;;;5284604;28;20020;-73
2022/08/01 09:38:15;;;;;;;0.98;0.10;;;;;;;;;;5284069;28;20089;-73
2022/08/01 09:40:54;;;;;;;4.50;0.20;;;;;;;;;;5284575;28;20382;-73
2022/08/01 09:43:25;;;;;;;;;;;;;;;;;;5283665;28;20274;-73
2022/08/01 09:45:56;;;;;;;0.25;0.10;;;;;;;;;;5284689;28;20261;-74
2022/08/01 09:48:28;;;;;;;0.28;0.10;;;;;;;;;;5284374;28;20020;-73
2022/08/01 09:50:59;;;;;;;1.25;0.10;;;;;;;;;;5283831;28;20070;-74
2022/08/01 09:54:00;;;;;;;0.20;0.10;;;;;;;;;;5284576;28;20024;-74
2022/08/01 09:56:38;;;;;;;0.55;0.10;;;;;;;;;;5275178;28;20032;-73
2022/08/01 09:59:09;;;;;;;1.08;0.10;;;;;;;;;;5283652;28;20013;-73
2022/08/01 10:01:47;;;;;;;1.07;0.10;;;;;;;;;;5284519;28;20142;-73
2022/08/01 10:04:19;;;;;;;0.80;0.10;;;;;;;;;;5283182;28;20460;-73
2022/08/01 10:06:53;;;;;;;2.97;0.20;;;;;;;;;;5284423;28;20112;-73
2022/08/01 10:09:28;;;;;;;1.02;0.10;;;;;;;;;;5284106;28;20025;-73
2022/08/01 10:12:00;;;;;;;0.38;0.10;;;;;;;;;;5282347;28;20063;-73
2022/08/01 10:14:31;;;;;;;0.82;0.10;;;;;;;;;;5284156;28;20013;-74
2022/08/01 10:17:03;;;;;;;0.43;0.15;;;;;;;;;;5283977;28;20019;-73
2022/08/01 10:19:35;;;;;;;1.45;0.10;;;;;;;;;;5282943;28;20063;-73
2022/08/01 10:22:11;;;;;;;0.75;0.10;;;;;;;;;;5283857;28;20016;-74
2022/08/01 10:24:42;;;;;;;0.75;0.10;;;;;;;;;;5283844;28;20085;-73
2022/08/01 10:27:15;;;;;;;1.35;0.30;;;;;;;;;;5282895;28;20468;-73
2022/08/01 10:29:49;;;;;;;1.10;0.40;;;;;;;;;;5283184;28;20032;-74
2022/08/01 10:32:21;;;;;;;1.50;0.30;;;;;;;;;;5282567;28;20081;-74
2022/08/01 10:34:52;;;;;;;1.05;0.40;;;;;;;;;;5284177;28;20062;-74
2022/08/01 10:37:24;;;;;;;1.65;0.35;;;;;;;;;;5283383;28;20031;-73
2022/08/01 10:39:55;;;;;;;1.50;0.30;;;;;;;;;;5283007;28;20021;-74
2022/08/01 10:42:27;;;;;;;2.10;0.32;;;;;;;;;;5283255;28;20443;-74
2022/08/01 10:44:58;;;;;;;1.00;0.40;;;;;;;;;;5283712;28;20020;-74
2022/08/01 10:47:50;;;;;;;0.82;0.30;;;;;;;;;;5282483;28;20487;-74
2022/08/01 10:50:26;;;;;;;0.70;0.30;;;;;;;;;;5282214;28;20141;-74
2022/08/01 10:53:12;;;;;;;0.80;0.20;;;;;;;;;;5283693;28;20025;-74
2022/08/01 10:55:47;;;;;;;0.30;0.10;;;;;;;;;;5283318;28;20373;-74
2022/08/01 10:58:25;;;;;;;2.67;0.30;;;;;;;;;;5282763;28;20025;-74
2022/08/01 11:01:15;;;;;;;2.70;0.20;;;;;;;;;;5282556;28;20067;-74
2022/08/01 11:04:02;;;;;;;2.40;0.20;;;;;;;;;;5295285;28;20028;-74
2022/08/01 11:06:33;;;;;;;0.50;0.20;;;;;;;;;;5303725;28;20463;-74
2022/08/01 11:09:14;;;;;;;0.47;0.20;;;;;;;;;;5302889;28;20027;-75
2022/08/01 11:12:00;;;;;;;2.92;0.20;;;;;;;;;;5303702;28;20408;-74
2022/08/01 11:14:32;;;;;;;17.65;0.75;;;;;;;;;;5302995;28;20023;-75
2022/08/01 11:17:30;;;;;;;54.53;8.75;;;;;;;;;;5303756;28;20023;-75
2022/08/01 11:20:08;;;;;;;7.70;0.60;;;;;;;;;;5303815;28;20135;-75
2022/08/01 11:22:58;;;;;;;3.83;0.47;;;;;;;;;;5302949;28;20425;-75
2022/08/01 11:25:35;;;;;;;4.15;0.50;;;;;;;;;;5303403;28;20034;-78
2022/08/01 11:28:15;;;;;;;2.38;0.10;;;;;;;;;;5303513;28;20121;-73
2022/08/01 11:30:48;;;;;;;1.02;0.13;;;;;;;;;;5302612;28;20102;-74
2022/08/01 11:33:39;;;;;;;1.45;0.17;;;;;;;;;;5302631;28;20052;-75
2022/08/01 11:36:10;;;;;;;0.60;0.20;;;;;;;;;;5300582;28;20467;-75
2022/08/01 11:38:43;;;;;;;6.68;0.38;;;;;;;;;;5302182;28;20032;-75
2022/08/01 11:41:17;;;;;;;1.75;0.20;;;;;;;;;;5303490;28;20016;-75
2022/08/01 11:43:54;;;;;;;1.42;0.20;;;;;;;;;;5302416;28;20024;-75
2022/08/01 11:46:44;;;;;;;1.17;0.20;;;;;;;;;;5302950;28;20055;-75
2022/08/01 11:49:27;;;;;;;1.13;0.28;;;;;;;;;;5303324;28;20049;-75
2022/08/01 11:52:03;;;;;;;1.85;0.32;;;;;;;;;;5303457;28;20026;-75
2022/08/01 11:54:54;;;;;;;5.28;0.20;;;;;;;;;;5303141;28;20352;-75
2022/08/01 11:57:27;;;;;;;2.78;0.30;;;;;;;;;;5301674;28;20032;-74
2022/08/01 11:59:58;;;;;;;2.40;0.30;;;;;;;;;;5303599;28;20165;-75
2022/08/01 12:02:31;;;;;;;1.52;0.22;;;;;;;;;;5302810;28;20107;-75
2022/08/01 12:05:05;;;;;;;1.80;0.57;;;;;;;;;;5302277;28;20122;-75
2022/08/01 12:07:36;;;;;;;2.35;0.25;;;;;;;;;;5302528;28;20046;-74
2022/08/01 12:10:11;;;;;;;2.05;0.30;;;;;;;;;;5302914;28;20012;-75
2022/08/01 12:12:47;;;;;;;2.80;0.20;;;;;;;;;;5302260;28;20020;-72
2022/08/01 12:15:19;;;;;;;2.97;0.30;;;;;;;;;;5303004;28;20035;-75
2022/08/01 12:17:54;;;;;;;4.57;0.28;;;;;;;;;;5302249;28;20024;-75
2022/08/01 12:20:30;;;;;;;2.53;0.22;;;;;;;;;;5302297;28;20040;-72
2022/08/01 12:23:05;;;;;;;2.58;0.20;;;;;;;;;;5302781;28;20043;-72
2022/08/01 12:25:38;;;;;;;1.55;0.20;;;;;;;;;;5301782;28;20378;-73
2022/08/01 12:28:12;;;;;;;3.13;0.30;;;;;;;;;;5302596;28;20028;-73
2022/08/01 12:30:47;;;;;;;6.70;0.30;;;;;;;;;;5302577;28;20027;-72
2022/08/01 12:33:19;;;;;;;3.80;0.20;;;;;;;;;;5301878;28;20413;-73
2022/08/01 12:35:50;;;;;;;1.08;0.13;;;;;;;;;;5302285;28;20107;-72
2022/08/01 12:38:22;;;;;;;1.83;0.20;;;;;;;;;;5295829;28;20550;-72
2022/08/01 12:40:54;;;;;;;1.30;0.20;;;;;;;;;;5285689;28;20306;-73
2022/08/01 12:43:25;;;;;;;2.13;0.20;;;;;;;;;;5287696;28;20475;-73
2022/08/01 12:45:58;;;;;;;3.03;0.40;;;;;;;;;;5282762;28;20108;-73
2022/08/01 12:48:30;;;;;;;2.67;0.30;;;;;;;;;;5279775;28;20263;-72
2022/08/01 12:51:02;;;;;;;2.55;0.30;;;;;;;;;;5280177;28;20024;-72
2022/08/01 12:53:34;;;;;;;4.85;0.30;;;;;;;;;;5279390;28;20020;-73
2022/08/01 12:56:05;;;;;;;1.33;0.30;;;;;;;;;;5286077;28;20031;-72
2022/08/01 12:58:36;;;;;;;1.73;0.30;;;;;;;;;;5282316;28;20031;-73
2022/08/01 13:01:09;;;;;;;1.50;0.30;;;;;;;;;;5280418;28;20017;-73
2022/08/01 13:03:40;;;;;;;61.85;4.90;;;;;;;;;;5281107;28;20263;-73
2022/08/01 13:06:12;;;;;;;1.70;0.30;;;;;;;;;;5280746;28;20130;-73
2022/08/01 13:08:44;;;;;;;2.95;0.40;;;;;;;;;;5280411;28;20263;-73
2022/08/01 13:11:16;;;;;;;3.75;0.40;;;;;;;;;;5281162;28;20026;-73
2022/08/01 13:13:48;;;;;;;2.03;0.40;;;;;;;;;;5280504;28;20371;-73
2022/08/01 13:16:20;;;;;;;2.30;0.40;;;;;;;;;;5280716;28;20029;-73
2022/08/01 13:18:52;;;;;;;3.15;0.52;;;;;;;;;;5281327;28;20016;-72
2022/08/01 13:21:25;;;;;;;2.05;0.40;;;;;;;;;;5279673;28;20040;-72
2022/08/01 13:24:02;;;;;;;2.97;0.60;;;;;;;;;;5284541;28;20019;-73
2022/08/01 13:26:42;;;;;;;4.47;0.75;;;;;;;;;;5301260;28;20039;-72
2022/08/01 13:29:17;;;;;;;4.63;0.70;;;;;;;;;;5300666;28;20028;-73
2022/08/01 13:31:49;;;;;;;3.72;0.50;;;;;;;;;;5301664;28;20076;-73
2022/08/01 13:34:30;;;;;;;3.63;0.55;;;;;;;;;;5301078;28;20099;-72
2022/08/01 13:37:02;;;;;;;3.38;0.40;;;;;;;;;;5300825;28;20027;-73
2022/08/01 13:39:43;;;;;;;9.10;0.60;;;;;;;;;;5300966;28;20008;-72
2022/08/01 13:42:15;;;;;;;4.47;0.40;;;;;;;;;;5301026;28;20036;-72
2022/08/01 13:44:47;;;;;;;1.67;0.38;;;;;;;;;;5301686;28;20020;-72
2022/08/01 13:47:18;;;;;;;2.45;0.40;;;;;;;;;;5303863;28;20028;-72
2022/08/01 13:49:49;;;;;;;4.50;0.40;;;;;;;;;;5304484;28;20020;-72
2022/08/01 13:52:20;;;;;;;2.37;0.40;;;;;;;;;;5304947;28;20036;-72
2022/08/01 13:54:51;;;;;;;3.63;0.90;;;;;;;;;;5305518;28;20465;-72
2022/08/01 13:57:23;;;;;;;3.38;0.50;;;;;;;;;;5303790;28;20391;-73
2022/08/01 13:59:54;;;;;;;2.55;0.45;;;;;;;;;;5305377;28;20493;-72
2022/08/01 14:02:26;;;;;;;1.95;0.40;;;;;;;;;;5304661;28;20024;-72
2022/08/01 14:04:58;;;;;;;4.07;0.52;;;;;;;;;;5304472;28;20020;-72
2022/08/01 14:07:29;;;;;;;4.85;0.40;;;;;;;;;;5304364;28;20436;-71
2022/08/01 14:10:00;;;;;;;2.53;0.40;;;;;;;;;;5304721;28;20020;-73
2022/08/01 14:12:32;;;;;;;4.32;0.50;;;;;;;;;;5303969;28;20022;-72
2022/08/01 14:15:03;;;;;;;2.72;0.50;;;;;;;;;;5304676;28;20530;-72
2022/08/01 14:17:34;;;;;;;10.30;0.77;;;;;;;;;;5303903;28;20466;-72
2022/08/01 14:20:06;;;;;;;3.55;0.50;;;;;;;;;;5304535;28;20090;-72
2022/08/01 14:22:39;;;;;;;3.15;0.40;;;;;;;;;;5304449;28;20331;-70
2022/08/01 14:25:10;;;;;;;4.07;0.75;;;;;;;;;;5303798;28;20020;-72
2022/08/01 14:27:41;;;;;;;7.17;0.50;;;;;;;;;;5304280;28;20028;-72
2022/08/01 14:30:12;;;;;;;5.07;0.60;;;;;;;;;;5303411;28;20335;-72
2022/08/01 14:32:44;;;;;;;2.78;0.50;;;;;;;;;;5302743;28;20470;-72
2022/08/01 14:35:17;;;;;;;5.82;0.60;;;;;;;;;;5304130;28;20016;-72
2022/08/01 14:37:48;;;;;;;2.72;0.50;;;;;;;;;;5303924;28;20028;-71
2022/08/01 14:40:19;;;;;;;4.80;0.50;;;;;;;;;;5302979;28;20518;-72
2022/08/01 14:42:50;;;;;;;3.67;0.60;;;;;;;;;;5304444;28;20436;-72
2022/08/01 14:45:22;;;;;;;5.65;0.50;;;;;;;;;;5301603;28;20503;-74
2022/08/01 14:47:53;;;;;;;6.87;0.77;;;;;;;;;;5288924;28;20020;-73
2022/08/01 14:50:26;;;;;;;6.88;0.50;;;;;;;;;;5291246;28;20301;-73
2022/08/01 14:52:58;;;;;;;2.60;0.40;;;;;;;;;;5303860;28;20016;-73
2022/08/01 14:55:29;;;;;;;4.20;0.50;;;;;;;;;;5303661;28;20016;-72
2022/08/01 14:58:00;;;;;;;2.85;0.60;;;;;;;;;;5303506;28;20034;-73
2022/08/01 15:00:31;;;;;;;5.10;0.37;;;;;;;;;;5303096;28;20069;-73
2022/08/01 15:03:03;;;;;;;3.63;0.50;;;;;;;;;;5304027;28;20278;-72
2022/08/01 15:05:35;;;;;;;2.47;0.50;;;;;;;;;;5303528;28;20115;-72
2022/08/01 15:08:06;;;;;;;6.30;0.60;;;;;;;;;;5303117;28;20020;-73